Time;durP1;ratioP1;P1;durP2;ratioP2;P2;SDS_P1;SDS_P2;PMS_P1;PMS_P2;Temp;Humidity;BMP_temperature;BMP_pressure;BME280_temperature;BME280_humidity;BME280_pressure;Samples;Min_cycle;Max_cycle;Signal;HPM_P1;HPM_P2
2022/07/08 00:00:57;;;;;;;3.88;2.08;;;18.80;92.00;;;;;;5052041;28;20250;-34
2022/07/08 00:03:25;;;;;;;8.88;2.58;;;18.80;92.00;;;;;;5051976;28;20207;-34
2022/07/08 00:05:53;;;;;;;5.70;2.20;;;18.80;92.00;;;;;;5051433;28;20232;-34
2022/07/08 00:08:27;;;;;;;10.23;2.15;;;18.70;92.00;;;;;;5052113;28;20278;-34
2022/07/08 00:10:54;;;;;;;5.43;1.98;;;18.70;92.00;;;;;;5050690;28;20200;-34
2022/07/08 00:13:21;;;;;;;6.50;1.90;;;18.70;92.00;;;;;;5051369;28;20196;-34
2022/07/08 00:15:49;;;;;;;4.85;1.77;;;18.60;91.90;;;;;;5050419;28;20578;-34
2022/07/08 00:18:18;;;;;;;8.52;2.25;;;18.60;91.90;;;;;;5051586;28;20211;-34
2022/07/08 00:20:48;;;;;;;7.07;2.20;;;18.60;92.00;;;;;;5051354;28;20250;-34
2022/07/08 00:23:15;;;;;;;5.10;2.38;;;18.60;92.00;;;;;;5050290;28;20570;-34
2022/07/08 00:25:43;;;;;;;6.78;2.00;;;18.60;92.00;;;;;;5051219;28;20228;-34
2022/07/08 00:28:10;;;;;;;4.53;1.90;;;18.50;91.90;;;;;;5051175;28;20192;-33
2022/07/08 00:30:37;;;;;;;5.03;2.00;;;18.50;91.90;;;;;;5051638;28;20284;-34
2022/07/08 00:33:04;;;;;;;4.47;2.00;;;18.50;92.00;;;;;;5051687;28;20208;-34
2022/07/08 00:35:32;;;;;;;6.25;2.08;;;18.40;91.90;;;;;;5050889;28;20204;-34
2022/07/08 00:37:59;;;;;;;9.75;2.00;;;18.40;91.90;;;;;;5051401;28;20281;-34
2022/07/08 00:40:26;;;;;;;6.05;1.98;;;18.40;91.90;;;;;;5051831;28;20285;-34
2022/07/08 00:42:53;;;;;;;4.38;1.73;;;18.40;92.00;;;;;;5066403;28;20641;-33
2022/07/08 00:45:20;;;;;;;5.32;1.92;;;18.40;92.00;;;;;;5051171;28;20224;-34
2022/07/08 00:47:48;;;;;;;8.23;2.08;;;18.40;91.90;;;;;;5051743;28;20283;-34
2022/07/08 00:50:15;;;;;;;5.47;1.95;;;18.30;91.90;;;;;;5051140;28;20254;-34
2022/07/08 00:52:46;;;;;;;5.50;1.60;;;18.30;91.90;;;;;;5051258;28;20197;-33
2022/07/08 00:55:16;;;;;;;4.70;1.88;;;18.30;91.90;;;;;;5066617;28;20196;-34
2022/07/08 00:57:43;;;;;;;8.40;2.03;;;18.30;91.90;;;;;;5031658;28;20255;-34
2022/07/08 01:00:11;;;;;;;5.63;2.05;;;18.20;91.90;;;;;;5050705;28;20613;-34
2022/07/08 01:02:38;;;;;;;5.72;1.90;;;18.20;91.90;;;;;;5050880;28;20215;-33
2022/07/08 01:05:06;;;;;;;4.20;2.10;;;18.20;91.90;;;;;;5050373;28;20216;-33
2022/07/08 01:07:33;;;;;;;7.85;2.17;;;18.10;91.90;;;;;;5036555;28;20213;-34
2022/07/08 01:10:01;;;;;;;8.63;2.20;;;18.10;91.90;;;;;;5049534;28;20220;-34
2022/07/08 01:12:31;;;;;;;5.43;2.45;;;18.00;91.90;;;;;;5049897;28;20200;-34
2022/07/08 01:14:58;;;;;;;2.90;1.77;;;18.00;91.90;;;;;;5050199;28;20559;-34
2022/07/08 01:17:45;;;;;;;6.60;2.20;;;17.90;91.90;;;;;;5050891;28;20207;-34
2022/07/08 01:20:13;;;;;;;6.00;2.47;;;17.90;92.00;;;;;;5049870;28;20311;-34
2022/07/08 01:22:40;;;;;;;4.78;2.08;;;17.90;92.00;;;;;;5050600;28;20212;-33
2022/07/08 01:25:09;;;;;;;5.95;2.33;;;17.80;92.00;;;;;;5049798;28;20229;-33
2022/07/08 01:27:39;;;;;;;3.67;1.80;;;17.70;91.90;;;;;;5050093;28;20306;-33
2022/07/08 01:30:09;;;;;;;4.80;2.08;;;17.70;91.90;;;;;;5049245;28;20249;-34
2022/07/08 01:32:42;;;;;;;3.88;1.98;;;17.70;92.00;;;;;;5050241;28;20200;-35
2022/07/08 01:35:11;;;;;;;5.57;2.38;;;17.70;92.00;;;;;;5049982;28;20204;-34
2022/07/08 01:37:41;;;;;;;7.18;2.30;;;17.70;92.00;;;;;;5050163;28;20695;-34
2022/07/08 01:40:09;;;;;;;7.07;2.63;;;17.60;92.00;;;;;;5048493;28;20674;-34
2022/07/08 01:42:41;;;;;;;9.25;3.00;;;17.60;92.00;;;;;;5049761;28;20246;-34
2022/07/08 01:45:08;;;;;;;8.60;2.70;;;17.60;92.00;;;;;;5050106;28;20273;-34
2022/07/08 01:47:38;;;;;;;6.53;2.40;;;17.60;92.00;;;;;;5050634;28;20193;-34
2022/07/08 01:50:08;;;;;;;6.82;2.58;;;17.50;92.00;;;;;;5049638;28;20299;-34
2022/07/08 01:52:37;;;;;;;6.43;2.28;;;17.50;92.00;;;;;;5050097;28;20200;-34
2022/07/08 01:55:05;;;;;;;4.88;2.05;;;17.50;92.30;;;;;;5050244;28;20231;-34
2022/07/08 01:57:34;;;;;;;4.90;2.08;;;17.50;92.10;;;;;;5049481;28;20530;-33
2022/07/08 02:00:05;;;;;;;8.90;2.20;;;17.50;92.00;;;;;;5049776;28;20291;-34
2022/07/08 02:02:39;;;;;;;8.57;2.65;;;17.50;92.10;;;;;;5048133;28;20265;-33
2022/07/08 02:05:07;;;;;;;3.88;2.30;;;17.40;92.00;;;;;;5049261;28;20224;-33
2022/07/08 02:07:37;;;;;;;3.30;2.15;;;17.40;92.10;;;;;;5049849;28;20228;-33
2022/07/08 02:10:05;;;;;;;9.68;2.67;;;17.40;92.10;;;;;;5048269;28;20300;-34
2022/07/08 02:12:33;;;;;;;6.65;2.20;;;17.40;92.10;;;;;;5049520;28;20205;-34
2022/07/08 02:15:03;;;;;;;5.75;2.30;;;17.40;92.10;;;;;;5064625;28;20220;-33
2022/07/08 02:17:36;;;;;;;6.82;2.10;;;17.40;92.10;;;;;;5049732;28;20231;-34
2022/07/08 02:20:13;;;;;;;5.55;2.10;;;17.40;92.10;;;;;;5048520;28;20274;-33
2022/07/08 02:22:44;;;;;;;5.22;2.58;;;17.30;92.20;;;;;;5028425;28;20220;-34
2022/07/08 02:25:11;;;;;;;6.50;2.20;;;17.30;92.10;;;;;;5028233;28;20217;-33
2022/07/08 02:27:41;;;;;;;7.38;1.88;;;17.30;92.10;;;;;;5028918;28;20212;-34
2022/07/08 02:30:09;;;;;;;6.07;2.00;;;17.30;92.10;;;;;;5029432;28;20197;-34
2022/07/08 02:32:36;;;;;;;4.90;2.00;;;17.30;92.20;;;;;;5028143;28;20295;-34
2022/07/08 02:35:06;;;;;;;7.75;2.13;;;17.30;92.20;;;;;;5039902;28;20261;-34
2022/07/08 02:37:33;;;;;;;8.48;2.17;;;17.20;92.20;;;;;;5049003;28;20713;-34
2022/07/08 02:40:01;;;;;;;5.32;2.33;;;17.20;92.20;;;;;;5049574;28;20232;-34
2022/07/08 02:42:29;;;;;;;4.43;1.70;;;17.20;92.20;;;;;;5048881;28;20683;-34
2022/07/08 02:44:59;;;;;;;8.47;2.60;;;17.20;92.20;;;;;;5048745;28;20823;-34
2022/07/08 02:47:28;;;;;;;8.10;2.22;;;17.20;92.20;;;;;;5048838;28;20274;-34
2022/07/08 02:49:56;;;;;;;7.78;1.98;;;17.20;92.30;;;;;;5049132;28;20231;-34
2022/07/08 02:52:23;;;;;;;6.85;1.90;;;17.10;92.20;;;;;;5048833;28;20586;-36
2022/07/08 02:54:52;;;;;;;5.47;2.25;;;17.10;92.20;;;;;;5048752;28;20224;-37
2022/07/08 02:57:20;;;;;;;6.75;2.42;;;17.10;92.30;;;;;;5048310;28;20258;-36
2022/07/08 02:59:49;;;;;;;6.90;2.22;;;17.10;92.30;;;;;;5049228;28;20226;-36
2022/07/08 03:02:16;;;;;;;4.63;1.75;;;17.10;92.30;;;;;;5048946;28;20269;-36
2022/07/08 03:04:44;;;;;;;7.40;2.50;;;17.00;92.20;;;;;;5029304;28;20255;-36
2022/07/08 03:07:11;;;;;;;7.57;2.58;;;17.00;92.30;;;;;;5027395;28;20263;-36
2022/07/08 03:09:41;;;;;;;4.30;2.00;;;17.00;92.30;;;;;;5043648;28;20606;-36
2022/07/08 03:12:08;;;;;;;5.55;2.03;;;17.00;92.30;;;;;;5048341;28;20302;-36
2022/07/08 03:14:35;;;;;;;4.47;1.98;;;17.00;92.40;;;;;;5048927;28;20204;-36
2022/07/08 03:17:03;;;;;;;8.38;2.42;;;16.90;92.30;;;;;;5048557;28;20219;-36
2022/07/08 03:19:30;;;;;;;8.23;2.95;;;16.90;92.40;;;;;;5048374;28;20208;-36
2022/07/08 03:21:57;;;;;;;8.25;2.20;;;16.90;92.40;;;;;;5047964;28;20433;-36
2022/07/08 03:24:27;;;;;;;8.27;2.17;;;16.80;92.40;;;;;;5048529;28;20204;-36
2022/07/08 03:26:54;;;;;;;6.90;2.42;;;16.80;92.40;;;;;;5040146;28;20310;-36
2022/07/08 03:29:21;;;;;;;6.38;2.58;;;16.80;92.50;;;;;;5038745;28;20721;-36
2022/07/08 03:31:49;;;;;;;6.03;2.45;;;16.70;92.40;;;;;;5046727;28;20236;-36
2022/07/08 03:34:16;;;;;;;6.05;1.98;;;16.70;92.50;;;;;;5046745;28;20212;-36
2022/07/08 03:36:43;;;;;;;8.17;1.90;;;16.70;92.50;;;;;;5047554;28;20244;-36
2022/07/08 03:39:11;;;;;;;5.20;1.92;;;16.60;92.50;;;;;;5048316;28;20204;-36
2022/07/08 03:41:40;;;;;;;5.57;2.47;;;16.60;92.50;;;;;;5048528;28;20232;-37
2022/07/08 03:44:08;;;;;;;8.05;2.53;;;16.60;92.60;;;;;;5048018;28;20590;-36
2022/07/08 03:46:35;;;;;;;7.20;2.03;;;16.50;92.50;;;;;;5034787;28;20694;-36
2022/07/08 03:49:03;;;;;;;4.50;2.30;;;16.50;92.50;;;;;;5045973;28;20218;-36
2022/07/08 03:51:32;;;;;;;7.30;2.50;;;16.50;92.50;;;;;;5047567;28;20565;-36
2022/07/08 03:53:59;;;;;;;6.93;2.38;;;16.50;92.60;;;;;;5048011;28;20262;-36
2022/07/08 03:56:27;;;;;;;7.65;2.67;;;16.50;92.60;;;;;;5048267;28;20224;-36
2022/07/08 03:58:54;;;;;;;6.85;2.65;;;16.50;92.70;;;;;;5047395;28;20212;-36
2022/07/08 04:01:21;;;;;;;3.63;2.47;;;16.50;92.70;;;;;;5047325;28;20315;-36
2022/07/08 04:03:48;;;;;;;5.85;2.35;;;16.40;92.60;;;;;;5036037;28;20262;-36
2022/07/08 04:06:23;;;;;;;5.25;2.28;;;16.40;92.70;;;;;;5026285;28;20232;-36
2022/07/08 04:08:51;;;;;;;5.73;2.80;;;16.40;92.80;;;;;;5032452;28;20232;-37
2022/07/08 04:11:18;;;;;;;6.50;2.60;;;16.40;92.70;;;;;;5063173;28;20207;-36
2022/07/08 04:13:45;;;;;;;5.97;2.40;;;16.40;92.80;;;;;;5047492;28;20232;-37
2022/07/08 04:16:16;;;;;;;4.90;2.33;;;16.40;92.80;;;;;;5047897;28;20299;-36
2022/07/08 04:18:43;;;;;;;5.47;2.55;;;16.30;92.80;;;;;;5048081;28;20343;-36
2022/07/08 04:21:13;;;;;;;5.30;2.50;;;16.30;92.80;;;;;;5047306;28;20212;-36
2022/07/08 04:23:41;;;;;;;7.13;2.50;;;16.30;92.80;;;;;;5048021;28;20208;-36
2022/07/08 04:26:08;;;;;;;5.35;2.55;;;16.30;92.80;;;;;;5047346;28;20299;-37
2022/07/08 04:28:35;;;;;;;5.97;2.60;;;16.30;92.80;;;;;;5046052;28;20212;-36
2022/07/08 04:31:03;;;;;;;5.97;2.67;;;16.40;92.90;;;;;;5028409;28;20570;-36
2022/07/08 04:33:30;;;;;;;4.85;2.65;;;16.40;93.00;;;;;;5033030;28;20200;-36
2022/07/08 04:35:57;;;;;;;7.07;3.00;;;16.40;93.00;;;;;;5047421;28;20784;-36
2022/07/08 04:38:25;;;;;;;7.53;2.63;;;16.40;93.00;;;;;;5047942;28;20256;-36
2022/07/08 04:40:53;;;;;;;4.35;2.50;;;16.40;93.00;;;;;;5047651;28;20200;-36
2022/07/08 04:43:25;;;;;;;5.60;2.30;;;16.40;93.00;;;;;;5046281;28;20200;-36
2022/07/08 04:45:52;;;;;;;5.85;2.75;;;16.40;93.00;;;;;;5049782;28;20239;-36
2022/07/08 04:48:19;;;;;;;5.13;2.88;;;16.40;93.00;;;;;;5051160;28;20192;-37
2022/07/08 04:50:47;;;;;;;5.38;2.72;;;16.40;93.10;;;;;;5051174;28;20208;-36
2022/07/08 04:53:16;;;;;;;6.43;2.87;;;16.40;93.10;;;;;;5048946;28;20651;-36
2022/07/08 04:55:43;;;;;;;5.70;3.08;;;16.40;93.10;;;;;;5050540;28;20220;-37
2022/07/08 04:58:11;;;;;;;10.52;2.97;;;16.50;93.10;;;;;;5050445;28;20212;-36
2022/07/08 05:00:38;;;;;;;7.18;2.63;;;16.50;93.20;;;;;;5050776;28;20236;-36
2022/07/08 05:03:05;;;;;;;8.07;2.95;;;16.50;93.20;;;;;;5050582;28;20208;-36
2022/07/08 05:05:33;;;;;;;5.80;2.47;;;16.50;93.20;;;;;;5050597;28;20200;-36
2022/07/08 05:08:01;;;;;;;7.03;2.77;;;16.50;93.20;;;;;;5050436;28;20311;-36
2022/07/08 05:10:28;;;;;;;7.40;3.42;;;16.50;93.20;;;;;;5050612;28;20204;-36
2022/07/08 05:13:16;;;;;;;7.05;2.78;;;16.50;93.30;;;;;;5049065;28;20216;-36
2022/07/08 05:15:43;;;;;;;6.25;2.70;;;16.60;93.30;;;;;;5065788;28;20200;-36
2022/07/08 05:18:10;;;;;;;7.60;3.00;;;16.60;93.40;;;;;;5050413;28;20231;-36
2022/07/08 05:20:40;;;;;;;3.88;2.65;;;16.60;93.40;;;;;;5050241;28;20206;-36
2022/07/08 05:23:08;;;;;;;5.57;2.65;;;16.60;93.40;;;;;;5050491;28;20260;-36
2022/07/08 05:25:38;;;;;;;7.88;2.67;;;16.70;93.40;;;;;;5065472;28;20609;-36
2022/07/08 05:28:07;;;;;;;7.07;2.70;;;16.70;93.50;;;;;;5049796;28;20204;-36
2022/07/08 05:30:39;;;;;;;7.38;3.25;;;16.80;93.60;;;;;;5030695;28;20240;-36
2022/07/08 05:33:09;;;;;;;10.13;3.50;;;16.80;93.60;;;;;;5029267;28;20400;-36
2022/07/08 05:35:36;;;;;;;5.87;2.80;;;17.10;93.90;;;;;;5028705;28;20201;-36
2022/07/08 05:38:03;;;;;;;7.13;3.00;;;17.10;93.80;;;;;;5030404;28;20280;-36
2022/07/08 05:40:30;;;;;;;5.03;2.43;;;17.10;93.80;;;;;;5030242;28;20197;-36
2022/07/08 05:43:00;;;;;;;8.77;3.50;;;17.10;93.80;;;;;;5045821;28;20777;-36
2022/07/08 05:45:27;;;;;;;9.35;2.95;;;17.30;94.00;;;;;;5049755;28;20473;-36
2022/07/08 05:47:57;;;;;;;7.82;3.22;;;17.30;93.90;;;;;;5048639;28;20247;-36
2022/07/08 05:50:25;;;;;;;11.55;3.20;;;17.40;94.00;;;;;;5047459;28;20503;-36
2022/07/08 05:52:52;;;;;;;9.00;3.00;;;17.60;94.10;;;;;;5048580;28;20651;-36
2022/07/08 05:55:22;;;;;;;7.65;2.65;;;17.60;94.10;;;;;;5049811;28;20220;-36
2022/07/08 05:57:49;;;;;;;7.47;2.25;;;17.50;94.00;;;;;;5049665;28;20240;-36
2022/07/08 06:00:17;;;;;;;7.60;1.88;;;17.50;94.00;;;;;;5041483;28;20678;-37
2022/07/08 06:02:45;;;;;;;7.60;2.53;;;17.50;94.00;;;;;;5049869;28;20697;-36
2022/07/08 06:05:14;;;;;;;6.13;2.15;;;17.60;94.00;;;;;;5048187;28;20406;-36
2022/07/08 06:07:43;;;;;;;9.95;2.53;;;17.80;94.20;;;;;;5049633;28;20703;-34
2022/07/08 06:10:10;;;;;;;7.13;2.00;;;17.80;94.00;;;;;;5049057;28;20287;-34
2022/07/08 06:12:38;;;;;;;6.18;2.33;;;17.80;94.00;;;;;;5049079;28;20832;-34
2022/07/08 06:15:05;;;;;;;6.10;2.30;;;17.90;94.00;;;;;;5049475;28;20215;-33
2022/07/08 06:17:40;;;;;;;3.88;1.80;;;17.90;94.00;;;;;;5049740;28;20642;-34
2022/07/08 06:20:08;;;;;;;7.38;2.42;;;17.90;94.00;;;;;;5049060;28;20220;-34
2022/07/08 06:22:38;;;;;;;3.95;1.67;;;17.90;94.00;;;;;;5049621;28;20259;-34
2022/07/08 06:25:05;;;;;;;6.78;1.42;;;18.00;94.00;;;;;;5049681;28;20649;-34
2022/07/08 06:27:33;;;;;;;7.53;1.88;;;18.00;94.00;;;;;;5048825;28;20232;-34
2022/07/08 06:30:06;;;;;;;5.72;1.77;;;18.00;94.00;;;;;;5049098;28;20200;-34
2022/07/08 06:32:33;;;;;;;11.82;2.00;;;18.00;94.10;;;;;;5048982;28;20232;-34
2022/07/08 06:35:00;;;;;;;7.38;1.80;;;18.00;94.00;;;;;;5048674;28;20192;-34
2022/07/08 06:37:28;;;;;;;5.28;1.60;;;18.10;94.10;;;;;;5048620;28;20664;-33
2022/07/08 06:39:55;;;;;;;10.43;1.80;;;18.10;94.10;;;;;;5047740;28;20285;-33
2022/07/08 06:42:24;;;;;;;6.32;1.42;;;18.20;94.10;;;;;;5048623;28;20220;-33
2022/07/08 06:44:52;;;;;;;7.75;1.83;;;18.20;94.10;;;;;;5049224;28;20196;-34
2022/07/08 06:47:22;;;;;;;3.47;1.40;;;18.20;94.10;;;;;;5047675;28;20776;-34
2022/07/08 06:49:50;;;;;;;5.43;1.10;;;18.20;94.10;;;;;;5046698;28;20299;-33
2022/07/08 06:52:18;;;;;;;4.95;1.52;;;18.30;94.20;;;;;;5063821;28;20247;-34
2022/07/08 06:54:45;;;;;;;7.60;1.80;;;18.30;94.20;;;;;;5047242;28;20230;-34
2022/07/08 06:57:15;;;;;;;6.32;1.45;;;18.40;94.20;;;;;;5048403;28;20222;-33
2022/07/08 06:59:42;;;;;;;8.40;1.58;;;18.40;94.20;;;;;;5046902;28;20215;-33
2022/07/08 07:02:29;;;;;;;7.60;1.60;;;18.40;94.20;;;;;;5048374;28;20206;-34
2022/07/08 07:04:57;;;;;;;3.00;1.48;;;18.50;94.20;;;;;;5048529;28;20201;-34
2022/07/08 07:07:24;;;;;;;5.55;1.30;;;18.60;94.20;;;;;;5048061;28;20274;-34
2022/07/08 07:09:52;;;;;;;5.15;1.83;;;18.60;94.20;;;;;;5041017;28;20216;-34
2022/07/08 07:12:19;;;;;;;6.07;1.42;;;18.60;94.30;;;;;;5028264;28;20200;-33
2022/07/08 07:14:46;;;;;;;5.45;1.42;;;18.60;94.20;;;;;;5028782;28;20692;-33
2022/07/08 07:17:20;;;;;;;10.88;1.92;;;18.70;94.30;;;;;;5028300;28;20215;-33
2022/07/08 07:19:49;;;;;;;5.50;1.60;;;18.70;94.20;;;;;;5058700;28;20199;-33
2022/07/08 07:22:27;;;;;;;6.05;1.50;;;18.80;94.30;;;;;;5027144;28;20217;-33
2022/07/08 07:24:55;;;;;;;5.15;2.13;;;18.80;94.60;;;;;;5045309;28;20603;-33
2022/07/08 07:27:22;;;;;;;6.10;1.97;;;18.80;94.30;;;;;;5045674;28;20411;-33
2022/07/08 07:29:51;;;;;;;5.68;2.22;;;19.10;94.60;;;;;;5047706;28;20819;-33
2022/07/08 07:32:19;;;;;;;9.88;2.13;;;19.10;94.50;;;;;;5048200;28;20212;-33
2022/07/08 07:34:46;;;;;;;8.75;2.17;;;19.10;94.50;;;;;;5047969;28;20204;-33
2022/07/08 07:37:13;;;;;;;4.05;2.00;;;19.20;94.50;;;;;;5047784;28;20231;-33
2022/07/08 07:39:40;;;;;;;6.07;2.15;;;19.10;94.50;;;;;;5048062;28;20204;-33
2022/07/08 07:42:08;;;;;;;7.88;2.20;;;19.10;94.50;;;;;;5047025;28;20250;-33
2022/07/08 07:44:37;;;;;;;8.55;2.63;;;19.20;94.50;;;;;;5047960;28;20216;-33
2022/07/08 07:47:05;;;;;;;9.40;2.53;;;19.20;94.50;;;;;;5047562;28;20240;-33
2022/07/08 07:49:34;;;;;;;7.90;2.63;;;19.20;94.60;;;;;;5046586;28;20478;-33
2022/07/08 07:52:04;;;;;;;10.85;3.25;;;19.40;94.70;;;;;;5047354;28;20274;-33
2022/07/08 07:54:36;;;;;;;8.77;2.70;;;19.40;94.60;;;;;;5047531;28;20231;-33
2022/07/08 07:57:04;;;;;;;7.88;2.92;;;19.40;94.60;;;;;;5047237;28;20239;-33
2022/07/08 07:59:31;;;;;;;5.60;2.40;;;19.40;94.60;;;;;;5048206;28;20212;-33
2022/07/08 08:01:58;;;;;;;9.23;3.17;;;19.40;94.60;;;;;;5047647;28;20204;-33
2022/07/08 08:04:26;;;;;;;8.07;3.08;;;19.40;94.70;;;;;;5063209;28;20238;-33
2022/07/08 08:06:53;;;;;;;11.68;3.55;;;19.40;94.70;;;;;;5045874;28;20228;-33
2022/07/08 08:09:21;;;;;;;8.90;4.05;;;19.40;94.70;;;;;;5047780;28;20703;-33
2022/07/08 08:11:49;;;;;;;9.35;3.63;;;19.40;94.80;;;;;;5047644;28;20228;-33
2022/07/08 08:14:16;;;;;;;8.93;3.55;;;19.40;94.80;;;;;;5048046;28;20212;-33
2022/07/08 08:16:43;;;;;;;11.80;3.70;;;19.40;94.80;;;;;;5046310;28;20234;-33
2022/07/08 08:19:13;;;;;;;9.07;3.53;;;19.50;94.90;;;;;;5049101;28;20227;-33
2022/07/08 08:21:40;;;;;;;8.55;3.63;;;19.50;94.90;;;;;;5050968;28;20200;-33
2022/07/08 08:24:11;;;;;;;9.60;3.70;;;19.50;94.90;;;;;;5051396;28;20236;-33
2022/07/08 08:26:38;;;;;;;7.95;3.00;;;19.60;94.90;;;;;;5051289;28;20219;-33
2022/07/08 08:29:07;;;;;;;8.25;3.30;;;19.60;94.90;;;;;;5050963;28;20776;-33
2022/07/08 08:31:37;;;;;;;7.65;3.40;;;19.60;94.90;;;;;;5051675;28;20228;-33
2022/07/08 08:34:08;;;;;;;6.93;3.50;;;19.70;94.90;;;;;;5051172;28;20295;-33
2022/07/08 08:36:35;;;;;;;8.52;3.47;;;19.70;94.90;;;;;;5050866;28;20248;-33
2022/07/08 08:39:03;;;;;;;13.82;3.50;;;19.70;95.00;;;;;;5051370;28;20604;-33
2022/07/08 08:41:33;;;;;;;14.20;3.80;;;19.70;95.00;;;;;;5050039;28;20196;-33
2022/07/08 08:44:02;;;;;;;15.68;3.35;;;19.80;95.00;;;;;;5049522;28;20746;-33
2022/07/08 08:46:35;;;;;;;10.25;2.80;;;19.80;95.10;;;;;;5051395;28;20223;-33
2022/07/08 08:49:02;;;;;;;6.80;2.35;;;19.90;95.40;;;;;;5048772;28;20705;-33
2022/07/08 08:51:34;;;;;;;5.80;2.28;;;19.90;95.10;;;;;;5050511;28;20206;-33
2022/07/08 08:54:06;;;;;;;4.72;1.73;;;20.00;95.10;;;;;;5051055;28;20734;-33
2022/07/08 08:56:37;;;;;;;6.20;2.15;;;20.00;95.10;;;;;;5051004;28;20287;-33
2022/07/08 08:59:05;;;;;;;8.68;2.92;;;20.00;95.10;;;;;;5050142;28;20265;-33
2022/07/08 09:01:34;;;;;;;5.90;2.35;;;20.00;95.10;;;;;;5050733;28;20299;-33
2022/07/08 09:04:12;;;;;;;3.40;1.85;;;20.00;95.10;;;;;;5033575;28;20215;-33
2022/07/08 09:06:40;;;;;;;5.25;2.20;;;20.00;95.00;;;;;;5050181;28;20208;-33
2022/07/08 09:09:07;;;;;;;5.85;1.92;;;20.00;95.10;;;;;;5048662;28;20675;-33
2022/07/08 09:11:35;;;;;;;5.63;1.83;;;20.10;95.20;;;;;;5050369;28;20240;-33
2022/07/08 09:14:20;;;;;;;5.22;2.00;;;20.10;95.20;;;;;;5050383;28;20208;-33
2022/07/08 09:17:10;;;;;;;8.20;2.50;;;20.10;95.20;;;;;;5050345;28;20266;-33
2022/07/08 09:19:40;;;;;;;11.75;3.03;;;20.20;95.20;;;;;;5050647;28;20602;-33
2022/07/08 09:22:15;;;;;;;7.90;2.13;;;20.20;95.20;;;;;;5050370;28;20811;-33
2022/07/08 09:24:46;;;;;;;8.90;2.08;;;20.20;95.20;;;;;;5050630;28;20291;-40
2022/07/08 09:27:15;;;;;;;7.55;2.33;;;20.20;95.20;;;;;;5049630;28;20231;-41
2022/07/08 09:29:59;;;;;;;7.78;2.00;;;20.30;95.20;;;;;;5050121;28;20196;-41
2022/07/08 09:32:31;;;;;;;5.38;1.75;;;20.40;95.20;;;;;;5032588;28;20201;-40
2022/07/08 09:34:58;;;;;;;6.32;1.65;;;20.30;95.00;;;;;;5029723;28;20292;-40
2022/07/08 09:37:31;;;;;;;6.65;1.85;;;20.30;95.00;;;;;;5046305;28;20232;-41
2022/07/08 09:39:58;;;;;;;7.13;2.10;;;20.40;95.00;;;;;;5050167;28;20262;-40
2022/07/08 09:42:37;;;;;;;7.22;1.90;;;20.40;95.10;;;;;;5048585;28;20215;-33
2022/07/08 09:45:11;;;;;;;7.38;2.08;;;20.40;95.10;;;;;;5047860;28;20216;-33
2022/07/08 09:47:41;;;;;;;7.93;1.50;;;20.50;95.20;;;;;;5032655;28;20230;-33
2022/07/08 09:50:16;;;;;;;5.18;1.42;;;20.50;95.30;;;;;;5048087;28;20277;-33
2022/07/08 09:52:51;;;;;;;9.88;1.92;;;20.60;95.30;;;;;;5049762;28;20208;-33
2022/07/08 09:55:19;;;;;;;5.45;1.42;;;20.60;95.30;;;;;;5049583;28;20291;-33
2022/07/08 09:57:46;;;;;;;4.07;1.73;;;20.60;95.20;;;;;;5047506;28;20273;-33
2022/07/08 10:00:14;;;;;;;5.30;1.38;;;20.60;95.20;;;;;;5049354;28;20265;-33
2022/07/08 10:02:42;;;;;;;5.70;2.25;;;20.70;95.30;;;;;;5050171;28;20216;-33
2022/07/08 10:05:09;;;;;;;7.80;1.83;;;20.70;95.30;;;;;;5049487;28;20223;-33
2022/07/08 10:07:37;;;;;;;6.13;1.45;;;20.70;95.30;;;;;;5049310;28;20228;-33
2022/07/08 10:10:05;;;;;;;6.80;1.73;;;20.70;95.30;;;;;;5049426;28;20220;-33
2022/07/08 10:12:33;;;;;;;6.00;1.60;;;20.80;95.40;;;;;;5048716;28;20748;-33
2022/07/08 10:15:05;;;;;;;3.88;1.40;;;20.90;95.50;;;;;;5048878;28;20869;-33
2022/07/08 10:17:40;;;;;;;6.18;1.48;;;20.90;95.50;;;;;;5049548;28;20240;-41
2022/07/08 10:20:11;;;;;;;6.32;1.75;;;20.90;95.50;;;;;;5049106;28;20654;-41
2022/07/08 10:22:40;;;;;;;3.75;1.67;;;21.00;95.50;;;;;;5049192;28;20896;-41
2022/07/08 10:25:08;;;;;;;3.75;1.42;;;21.00;95.40;;;;;;5048744;28;20208;-41
2022/07/08 10:27:36;;;;;;;5.95;1.80;;;21.00;95.40;;;;;;5043536;28;20217;-41
2022/07/08 10:30:22;;;;;;;6.05;1.58;;;21.00;95.40;;;;;;5030472;28;20266;-40
2022/07/08 10:32:53;;;;;;;4.25;1.20;;;21.20;95.50;;;;;;5048748;28;20196;-40
2022/07/08 10:35:21;;;;;;;3.45;1.40;;;21.10;95.50;;;;;;5047658;28;20208;-40
2022/07/08 10:38:00;;;;;;;5.30;1.40;;;21.20;95.60;;;;;;5049104;28;20282;-40
2022/07/08 10:40:44;;;;;;;5.63;1.42;;;21.30;95.70;;;;;;5048446;28;20307;-33
2022/07/08 10:43:27;;;;;;;6.93;1.73;;;21.40;95.70;;;;;;5047457;28;20724;-33
2022/07/08 10:46:10;;;;;;;3.95;1.50;;;21.40;95.70;;;;;;5048457;28;20219;-33
2022/07/08 10:48:40;;;;;;;6.38;1.58;;;21.50;95.80;;;;;;5047507;28;20514;-33
2022/07/08 10:51:29;;;;;;;4.28;1.50;;;21.50;95.70;;;;;;5048038;28;20215;-33
2022/07/08 10:54:07;;;;;;;5.20;1.60;;;21.50;95.60;;;;;;5043188;28;20278;-33
2022/07/08 10:56:53;;;;;;;3.65;1.75;;;21.60;95.70;;;;;;5048132;28;20577;-33
2022/07/08 10:59:22;;;;;;;5.20;1.70;;;21.60;95.70;;;;;;5047003;28;20232;-33
2022/07/08 11:02:03;;;;;;;7.15;1.60;;;21.70;95.80;;;;;;5046718;28;20204;-33
2022/07/08 11:04:31;;;;;;;5.50;1.70;;;21.70;95.80;;;;;;5048115;28;20318;-33
2022/07/08 11:09:48;;;;;;;7.72;1.85;;;21.80;95.80;;;;;;5039981;28;20204;-33
2022/07/08 11:12:27;;;;;;;5.97;1.58;;;21.80;95.60;;;;;;5048003;28;20255;-33
2022/07/08 11:14:58;;;;;;;3.63;1.33;;;21.90;95.80;;;;;;5063384;28;20299;-33
2022/07/08 11:17:34;;;;;;;4.35;1.30;;;21.90;95.90;;;;;;5048151;28;20211;-33
2022/07/08 11:20:10;;;;;;;5.75;1.60;;;21.90;95.90;;;;;;5047734;28;20710;-33
2022/07/08 11:22:41;;;;;;;6.03;1.70;;;22.00;96.00;;;;;;5051750;28;20291;-33
2022/07/08 11:25:13;;;;;;;4.55;1.98;;;22.10;96.00;;;;;;5047930;28;20292;-33
2022/07/08 11:27:41;;;;;;;6.43;1.67;;;22.10;95.90;;;;;;5046064;28;20342;-33
2022/07/08 11:30:13;;;;;;;4.03;1.85;;;22.20;96.00;;;;;;5047833;28;20212;-33
2022/07/08 11:32:41;;;;;;;4.55;1.98;;;22.30;96.10;;;;;;5048060;28;20193;-33
2022/07/08 11:35:13;;;;;;;4.28;1.50;;;22.30;95.90;;;;;;5062294;28;20753;-33
2022/07/08 11:37:45;;;;;;;6.00;1.70;;;22.30;96.00;;;;;;5027749;28;20721;-33
2022/07/08 11:40:16;;;;;;;5.85;1.92;;;22.40;96.00;;;;;;5061936;28;20262;-33
2022/07/08 11:42:44;;;;;;;5.40;1.80;;;22.40;96.00;;;;;;5046985;28;20579;-33
2022/07/08 11:45:17;;;;;;;4.57;1.63;;;22.50;96.10;;;;;;5046262;28;20208;-33
2022/07/08 11:47:47;;;;;;;6.97;1.83;;;22.50;96.10;;;;;;5047566;28;20710;-33
2022/07/08 11:50:15;;;;;;;8.43;2.42;;;22.60;96.00;;;;;;5045973;28;20250;-33
2022/07/08 11:52:44;;;;;;;6.38;2.47;;;22.60;96.00;;;;;;5047469;28;20215;-33
2022/07/08 11:55:11;;;;;;;5.07;1.80;;;22.70;96.10;;;;;;5045929;28;20228;-33
2022/07/08 11:57:40;;;;;;;5.40;1.98;;;22.70;96.20;;;;;;5036083;28;20216;-33
2022/07/08 12:00:11;;;;;;;3.85;1.80;;;22.80;96.20;;;;;;5047367;28;20197;-33
2022/07/08 12:02:40;;;;;;;6.35;2.10;;;22.80;96.30;;;;;;5046470;28;20219;-34
2022/07/08 12:05:12;;;;;;;4.60;1.85;;;22.80;96.30;;;;;;5047370;28;20583;-33
2022/07/08 12:07:41;;;;;;;5.05;1.88;;;22.90;96.30;;;;;;5046475;28;20262;-33
2022/07/08 12:10:20;;;;;;;4.00;1.50;;;22.90;96.40;;;;;;5047483;28;20235;-33
2022/07/08 12:12:58;;;;;;;5.68;1.75;;;23.00;96.40;;;;;;5047028;28;20621;-33
2022/07/08 12:15:36;;;;;;;5.65;1.67;;;23.10;96.40;;;;;;5062688;28;20627;-33
2022/07/08 12:18:04;;;;;;;4.75;2.00;;;23.10;96.40;;;;;;5046151;28;20222;-34
2022/07/08 12:20:37;;;;;;;7.50;2.17;;;23.20;96.50;;;;;;5045764;28;20283;-34
2022/07/08 12:23:05;;;;;;;3.75;1.80;;;23.30;96.50;;;;;;5047325;28;20262;-34
2022/07/08 12:25:52;;;;;;;6.13;1.67;;;23.30;96.50;;;;;;5047011;28;20204;-33
2022/07/08 12:28:24;;;;;;;6.53;1.85;;;23.30;96.40;;;;;;5046705;28;20772;-34
2022/07/08 12:30:53;;;;;;;9.15;2.42;;;23.40;96.40;;;;;;5047179;28;20254;-33
2022/07/08 12:33:28;;;;;;;4.85;2.00;;;23.40;96.30;;;;;;5047235;28;20251;-33
2022/07/08 12:35:57;;;;;;;8.73;1.95;;;23.50;96.20;;;;;;5046646;28;20200;-33
2022/07/08 12:38:29;;;;;;;6.20;1.80;;;23.50;96.30;;;;;;5047430;28;20240;-33
2022/07/08 12:40:56;;;;;;;5.03;1.70;;;23.50;96.30;;;;;;5045783;28;20197;-33
2022/07/08 12:43:31;;;;;;;3.65;1.50;;;23.60;96.40;;;;;;5046955;28;20223;-33
2022/07/08 12:45:59;;;;;;;3.15;1.50;;;23.60;96.50;;;;;;5047159;28;20196;-33
2022/07/08 12:48:26;;;;;;;7.40;2.00;;;23.60;96.50;;;;;;5027211;28;20290;-33
2022/07/08 12:51:00;;;;;;;9.02;2.05;;;23.80;96.60;;;;;;5042659;28;20733;-33
2022/07/08 12:53:27;;;;;;;5.20;1.70;;;23.80;96.60;;;;;;5047325;28;20205;-33
2022/07/08 12:55:58;;;;;;;3.40;1.48;;;23.90;96.40;;;;;;5047238;28;20871;-33
2022/07/08 12:58:28;;;;;;;5.28;1.90;;;23.90;96.30;;;;;;5046826;28;20269;-34
2022/07/08 13:00:55;;;;;;;5.45;2.00;;;24.00;96.50;;;;;;5046952;28;20239;-34